Time;durP1;ratioP1;P1;durP2;ratioP2;P2;SDS_P1;SDS_P2;PMS_P1;PMS_P2;Temp;Humidity;BMP_temperature;BMP_pressure;BME280_temperature;BME280_humidity;BME280_pressure;Samples;Min_cycle;Max_cycle;Signal;HPM_P1;HPM_P2
2023/07/24 00:04:53;;;;;;;8.98;8.18;;;;;;;;;;10140583;28;20117;-71
2023/07/24 00:09:50;;;;;;;9.68;8.88;;;;;;;;;;10147086;28;20418;-70
2023/07/24 00:14:46;;;;;;;9.20;8.32;;;;;;;;;;10140750;28;20133;-69
2023/07/24 00:19:42;;;;;;;8.70;8.00;;;;;;;;;;10137512;28;20046;-70
2023/07/24 00:24:39;;;;;;;9.68;8.88;;;;;;;;;;10141850;28;20058;-68
2023/07/24 00:29:35;;;;;;;8.85;8.15;;;;;;;;;;10136841;28;20050;-72
2023/07/24 00:34:31;;;;;;;9.18;8.38;;;;;;;;;;10133285;28;20059;-68
2023/07/24 00:39:29;;;;;;;9.32;8.52;;;;;;;;;;10143071;28;20055;-68
2023/07/24 00:44:25;;;;;;;9.32;8.52;;;;;;;;;;10127974;28;20082;-68
2023/07/24 00:49:21;;;;;;;9.88;8.98;;;;;;;;;;10134649;28;20050;-72
2023/07/24 00:54:18;;;;;;;9.07;8.38;;;;;;;;;;10133863;28;20078;-69
2023/07/24 00:59:15;;;;;;;9.82;8.93;;;;;;;;;;10141902;28;20046;-69
2023/07/24 01:09:23;;;;;;;8.87;8.17;;;;;;;;;;10650538;23;20045;-68
2023/07/24 01:14:21;;;;;;;10.45;9.45;;;;;;;;;;10193052;28;20546;-69
2023/07/24 01:19:42;;;;;;;9.90;9.10;;;;;;;;;;10178472;28;20045;-68
2023/07/24 01:24:58;;;;;;;9.82;8.93;;;;;;;;;;10176364;28;20108;-68
2023/07/24 01:29:55;;;;;;;10.32;9.52;;;;;;;;;;10190304;28;20057;-68
2023/07/24 01:34:51;;;;;;;9.93;9.02;;;;;;;;;;10182500;28;20038;-67
2023/07/24 01:39:48;;;;;;;9.73;8.93;;;;;;;;;;10158696;28;20085;-68
2023/07/24 01:44:44;;;;;;;10.63;9.73;;;;;;;;;;10154532;28;20074;-68
2023/07/24 01:49:43;;;;;;;10.05;9.10;;;;;;;;;;10192715;28;20066;-68
2023/07/24 01:54:39;;;;;;;10.10;9.23;;;;;;;;;;10190655;28;20073;-68
2023/07/24 01:59:36;;;;;;;10.77;9.80;;;;;;;;;;10183692;28;20049;-68
2023/07/24 02:04:32;;;;;;;11.65;10.55;;;;;;;;;;10186841;28;20057;-68
2023/07/24 02:09:28;;;;;;;10.73;9.85;;;;;;;;;;10193797;28;20049;-68
2023/07/24 02:14:26;;;;;;;10.63;9.73;;;;;;;;;;10199340;28;20427;-67
2023/07/24 02:19:22;;;;;;;10.90;9.80;;;;;;;;;;10180400;28;20069;-70
2023/07/24 02:24:19;;;;;;;10.85;9.77;;;;;;;;;;10185975;28;20060;-70
2023/07/24 02:29:15;;;;;;;11.23;10.25;;;;;;;;;;10194352;28;20045;-69
2023/07/24 02:34:12;;;;;;;11.13;10.23;;;;;;;;;;10192233;28;20061;-70
2023/07/24 02:39:08;;;;;;;11.23;10.25;;;;;;;;;;10193245;28;20046;-70
2023/07/24 02:44:04;;;;;;;10.75;9.95;;;;;;;;;;10180341;28;20045;-68
2023/07/24 02:49:01;;;;;;;12.20;11.05;;;;;;;;;;10190039;28;20124;-67
2023/07/24 02:53:57;;;;;;;12.70;11.50;;;;;;;;;;10192939;28;20068;-67
2023/07/24 02:58:53;;;;;;;11.40;10.50;;;;;;;;;;10192731;28;20151;-70
2023/07/24 03:03:49;;;;;;;11.68;10.65;;;;;;;;;;10188841;28;20507;-72
2023/07/24 03:08:46;;;;;;;12.18;10.95;;;;;;;;;;10203059;28;20049;-72
2023/07/24 03:13:42;;;;;;;12.00;11.00;;;;;;;;;;10206363;28;20049;-72
2023/07/24 03:18:39;;;;;;;11.77;10.73;;;;;;;;;;10188263;28;20050;-68
2023/07/24 03:23:35;;;;;;;11.10;10.18;;;;;;;;;;10192601;28;20050;-68
2023/07/24 03:28:32;;;;;;;11.23;10.32;;;;;;;;;;10170257;28;20122;-71
2023/07/24 03:33:28;;;;;;;11.50;10.57;;;;;;;;;;10196843;28;20092;-72
2023/07/24 03:38:24;;;;;;;11.35;10.43;;;;;;;;;;10257948;23;20470;-71
2023/07/24 03:43:21;;;;;;;11.25;10.18;;;;;;;;;;10266366;28;20077;-71
2023/07/24 03:48:17;;;;;;;10.90;9.98;;;;;;;;;;10235463;28;20041;-72
2023/07/24 03:53:14;;;;;;;10.40;9.57;;;;;;;;;;10216842;28;20589;-74
2023/07/24 03:58:10;;;;;;;12.27;11.25;;;;;;;;;;10211323;28;20597;-72
2023/07/24 04:03:06;;;;;;;11.18;10.27;;;;;;;;;;10232687;28;20180;-73
2023/07/24 04:14:10;;;;;;;11.77;10.80;;;;;;;;;;10097467;28;20074;-73
2023/07/24 04:24:43;;;;;;;12.60;11.52;;;;;;;;;;10282716;22;20069;-72
2023/07/24 04:29:40;;;;;;;12.50;11.52;;;;;;;;;;10210071;28;20592;-72
2023/07/24 04:34:36;;;;;;;12.35;11.25;;;;;;;;;;10211134;28;20041;-71
2023/07/24 04:39:33;;;;;;;11.15;10.25;;;;;;;;;;10220319;28;20045;-73
2023/07/24 04:44:29;;;;;;;12.25;11.13;;;;;;;;;;10207117;28;20051;-72
2023/07/24 04:55:35;;;;;;;12.82;11.63;;;;;;;;;;10195543;28;20092;-76
2023/07/24 05:00:31;;;;;;;13.00;11.73;;;;;;;;;;10167592;28;20527;-76
2023/07/24 05:05:28;;;;;;;12.70;11.63;;;;;;;;;;10172570;28;20077;-76
2023/07/24 05:16:22;;;;;;;12.65;11.60;;;;;;;;;;10314931;22;20049;-76
2023/07/24 05:21:22;;;;;;;12.88;11.77;;;;;;;;;;10193040;28;21622;-76
2023/07/24 05:26:28;;;;;;;13.18;11.98;;;;;;;;;;10205819;28;20504;-76
2023/07/24 05:49:46;;;;;;;12.93;11.77;;;;;;;;;;10471941;22;20140;-77
2023/07/24 06:19:46;;;;;;;12.07;11.18;;;;;;;;;;10639879;22;20455;-76
2023/07/24 06:48:05;;;;;;;;;;;;;;;;;;;;;
2023/07/24 07:11:39;;;;;;;12.07;10.88;;;;;;;;;;9933833;29;20128;-76
2023/07/24 07:29:38;;;;;;;;;;;;;;;;;;;;;
2023/07/24 08:16:20;;;;;;;11.02;10.13;;;;;;;;;;10200055;28;20029;-76
2023/07/24 08:45:15;;;;;;;12.02;10.93;;;;;;;;;;10707233;22;20041;-76
2023/07/24 08:50:43;;;;;;;11.68;10.75;;;;;;;;;;10030384;29;20133;-76
2023/07/24 08:55:48;;;;;;;11.43;10.32;;;;;;;;;;10007391;29;20130;-76
2023/07/24 09:20:17;;;;;;;;;;;;;;;;;;10145954;22;20057;-75
2023/07/24 09:25:30;;;;;;;11.52;10.38;;;;;;;;;;10198678;28;20397;-75
2023/07/24 09:30:29;;;;;;;11.45;10.35;;;;;;;;;;10228383;28;20051;-76
2023/07/24 09:35:27;;;;;;;11.25;10.10;;;;;;;;;;10230257;28;20152;-75
2023/07/24 09:51:37;;;;;;;12.20;10.18;;;;;;;;;;4735058;26;20136;-74
2023/07/24 10:14:59;;;;;;;11.02;10.10;;;;;;;;;;10036766;28;20037;-75
2023/07/24 10:26:15;;;;;;;10.27;9.38;;;;;;;;;;10126681;28;20058;-75
2023/07/24 10:37:52;;;;;;;11.13;10.02;;;;;;;;;;10207601;22;20049;-75
2023/07/24 10:55:05;;;;;;;11.27;9.50;;;;;;;;;;10359010;22;20045;-74
2023/07/24 11:11:40;;;;;;;10.73;9.83;;;;;;;;;;9914736;22;20057;-74
2023/07/24 11:23:26;;;;;;;10.68;9.77;;;;;;;;;;10206411;28;20491;-75
2023/07/24 11:34:51;;;;;;;10.30;9.40;;;;;;;;;;10216043;28;20026;-75
2023/07/24 11:40:08;;;;;;;10.70;9.80;;;;;;;;;;10281668;22;20068;-75
2023/07/24 12:21:21;;;;;;;11.00;10.00;;;;;;;;;;9972457;29;20048;-75
2023/07/24 12:51:01;;;;;;;10.30;9.40;;;;;;;;;;10791256;22;20053;-75
2023/07/24 13:02:03;;;;;;;11.00;10.13;;;;;;;;;;10222879;28;20467;-75
2023/07/24 13:07:51;;;;;;;;;;;;;;;;;;;;;
2023/07/24 13:25:43;;;;;;;10.30;9.38;;;;;;;;;;10058281;28;20035;-74
2023/07/24 13:43:04;;;;;;;;;;;;;;;;;;;;;
2023/07/24 14:05:46;;;;;;;12.93;10.38;;;;;;;;;;10220719;28;20451;-74
2023/07/24 14:11:21;;;;;;;9.45;8.52;;;;;;;;;;10168362;28;20045;-74
2023/07/24 14:16:27;;;;;;;10.02;9.02;;;;;;;;;;10180299;28;20052;-74
2023/07/24 14:22:01;;;;;;;9.00;8.30;;;;;;;;;;10187473;28;20042;-74
2023/07/24 14:39:06;;;;;;;10.30;9.27;;;;;;;;;;10195061;28;20050;-74
2023/07/24 14:44:34;;;;;;;10.23;9.23;;;;;;;;;;10165528;28;20038;-74
2023/07/24 15:01:40;;;;;;;10.20;9.35;;;;;;;;;;10466277;22;20526;-74
2023/07/24 15:06:41;;;;;;;10.13;9.23;;;;;;;;;;10189122;28;1060250;-73
2023/07/24 15:24:02;;;;;;;11.00;9.95;;;;;;;;;;9963940;29;20545;-73
2023/07/24 15:34:23;;;;;;;12.50;9.88;;;;;;;;;;10222940;28;20129;-73
2023/07/24 15:39:43;;;;;;;8.55;7.75;;;;;;;;;;10218861;28;20042;-72
2023/07/24 15:44:39;;;;;;;9.27;8.48;;;;;;;;;;10222924;28;20706;-72
2023/07/24 15:49:52;;;;;;;13.27;10.48;;;;;;;;;;10245878;23;20049;-72
2023/07/24 15:55:10;;;;;;;12.00;10.80;;;;;;;;;;10168877;28;20053;-73
2023/07/24 16:05:18;;;;;;;14.38;13.13;;;;;;;;;;10286799;22;20080;-74
2023/07/24 16:21:31;;;;;;;13.88;12.27;;;;;;;;;;10419557;22;19921;-73
2023/07/24 16:31:39;;;;;;;13.82;11.73;;;;;;;;;;2674172;26;20054;-73
2023/07/24 16:36:35;;;;;;;14.00;12.70;;;;;;;;;;10197590;23;20058;-75
2023/07/24 16:41:32;;;;;;;14.90;13.52;;;;;;;;;;10187102;28;20054;-75
2023/07/24 16:51:46;;;;;;;14.32;13.00;;;;;;;;;;6452944;26;20397;-75
2023/07/24 17:24:54;;;;;;;14.80;13.38;;;;;;;;;;10218706;28;20419;-76
2023/07/24 17:30:16;;;;;;;13.32;12.32;;;;;;;;;;10251990;23;20056;-75
2023/07/24 18:04:12;;;;;;;;;;;;;;;;;;;;;
2023/07/24 18:27:15;;;;;;;13.18;12.07;;;;;;;;;;10013864;29;20036;-76
2023/07/24 18:38:35;;;;;;;13.35;12.07;;;;;;;;;;10049507;28;20129;-75
2023/07/24 18:43:31;;;;;;;13.23;12.13;;;;;;;;;;10090275;28;20569;-75
2023/07/24 18:49:26;;;;;;;;;;;;;;;;;;;;;
2023/07/24 18:54:43;;;;;;;12.68;11.43;;;;;;;;;;10142092;28;20066;-75
2023/07/24 19:40:26;;;;;;;;;;;;;;;;;;;;;
2023/07/24 19:45:47;;;;;;;12.75;11.63;;;;;;;;;;10059789;28;20071;-75
2023/07/24 19:50:51;;;;;;;14.25;13.05;;;;;;;;;;10353851;23;20085;-74
2023/07/24 19:55:48;;;;;;;12.85;11.60;;;;;;;;;;10128066;28;20051;-72
2023/07/24 20:00:48;;;;;;;12.73;11.60;;;;;;;;;;10412100;23;20058;-69
2023/07/24 20:05:53;;;;;;;10.45;9.65;;;;;;;;;;10180263;28;20041;-71
2023/07/24 20:10:49;;;;;;;11.80;10.90;;;;;;;;;;10168331;28;20050;-70
2023/07/24 20:15:46;;;;;;;11.48;10.38;;;;;;;;;;10169086;28;20077;-70
2023/07/24 20:20:46;;;;;;;12.65;10.93;;;;;;;;;;10179583;28;20054;-70
2023/07/24 20:25:46;;;;;;;11.43;10.43;;;;;;;;;;10176950;28;20684;-70
2023/07/24 20:30:42;;;;;;;16.92;11.40;;;;;;;;;;10176924;28;20065;-70
2023/07/24 20:35:38;;;;;;;13.93;11.52;;;;;;;;;;10188448;28;20057;-68
2023/07/24 20:40:35;;;;;;;12.07;10.98;;;;;;;;;;10180886;28;20508;-69
2023/07/24 20:45:31;;;;;;;17.58;12.70;;;;;;;;;;10176879;28;20050;-68
2023/07/24 20:50:27;;;;;;;12.43;11.15;;;;;;;;;;10182926;28;20096;-68
2023/07/24 20:55:24;;;;;;;18.15;10.75;;;;;;;;;;10176082;28;20500;-69
2023/07/24 21:00:20;;;;;;;11.27;9.18;;;;;;;;;;10193418;28;20041;-68
2023/07/24 21:05:16;;;;;;;9.70;8.85;;;;;;;;;;10223204;28;20572;-69
2023/07/24 21:10:13;;;;;;;9.88;8.32;;;;;;;;;;10216810;28;20522;-69
2023/07/24 21:15:09;;;;;;;10.15;9.35;;;;;;;;;;10223980;28;20099;-73
2023/07/24 21:20:06;;;;;;;9.43;8.10;;;;;;;;;;10222427;28;20042;-72
2023/07/24 21:25:02;;;;;;;10.15;9.07;;;;;;;;;;10222797;28;20045;-72
2023/07/24 21:29:59;;;;;;;11.90;8.45;;;;;;;;;;10222264;28;20431;-72
2023/07/24 21:34:58;;;;;;;11.05;9.43;;;;;;;;;;10229276;28;20057;-71
2023/07/24 21:39:54;;;;;;;12.77;9.73;;;;;;;;;;10210571;28;20041;-72
2023/07/24 21:44:50;;;;;;;11.20;9.52;;;;;;;;;;10226350;28;20495;-71
2023/07/24 21:49:47;;;;;;;18.60;11.65;;;;;;;;;;10219390;28;20084;-69
2023/07/24 21:54:43;;;;;;;9.63;8.63;;;;;;;;;;10199531;28;20057;-68
2023/07/24 21:59:39;;;;;;;9.07;8.27;;;;;;;;;;10220452;28;20616;-68
2023/07/24 22:04:36;;;;;;;11.52;9.80;;;;;;;;;;10224505;28;20100;-69
2023/07/24 22:09:32;;;;;;;10.45;7.93;;;;;;;;;;10222617;28;20052;-68
2023/07/24 22:14:29;;;;;;;9.43;8.23;;;;;;;;;;10236303;28;20478;-70
2023/07/24 22:19:25;;;;;;;10.52;8.50;;;;;;;;;;10234962;28;20037;-68
2023/07/24 22:24:21;;;;;;;8.77;7.88;;;;;;;;;;10225676;28;20122;-70
2023/07/24 22:29:18;;;;;;;11.82;8.00;;;;;;;;;;10220240;28;20045;-70
2023/07/24 22:34:14;;;;;;;10.75;8.48;;;;;;;;;;10222989;28;20046;-70
2023/07/24 22:39:10;;;;;;;11.18;9.45;;;;;;;;;;10226153;28;20052;-70
2023/07/24 22:44:07;;;;;;;11.52;9.48;;;;;;;;;;10216223;28;20137;-70
2023/07/24 22:49:03;;;;;;;11.00;8.90;;;;;;;;;;10220745;28;21807;-70
2023/07/24 22:53:59;;;;;;;12.80;8.93;;;;;;;;;;10194671;28;20119;-69
2023/07/24 22:58:56;;;;;;;10.95;8.23;;;;;;;;;;10226033;28;20056;-69
2023/07/24 23:03:52;;;;;;;11.63;9.05;;;;;;;;;;10221869;28;20045;-69
2023/07/24 23:08:48;;;;;;;9.90;9.00;;;;;;;;;;10227141;28;20068;-69
2023/07/24 23:13:45;;;;;;;12.73;8.27;;;;;;;;;;10202198;28;20046;-70
2023/07/24 23:18:41;;;;;;;12.52;9.55;;;;;;;;;;10221168;28;20510;-70
2023/07/24 23:23:37;;;;;;;11.52;8.90;;;;;;;;;;10228179;28;20116;-70
2023/07/24 23:28:34;;;;;;;11.82;9.32;;;;;;;;;;10230092;28;20449;-69
2023/07/24 23:33:33;;;;;;;14.05;9.82;;;;;;;;;;10226938;28;20045;-69
2023/07/24 23:38:30;;;;;;;10.45;9.35;;;;;;;;;;10230109;28;20056;-70
2023/07/24 23:43:29;;;;;;;12.20;9.00;;;;;;;;;;10222567;28;20066;-71
2023/07/24 23:48:25;;;;;;;12.40;9.00;;;;;;;;;;10227644;28;20156;-70
2023/07/24 23:53:22;;;;;;;10.65;9.35;;;;;;;;;;10220408;28;20061;-70
2023/07/24 23:58:18;;;;;;;14.57;9.55;;;;;;;;;;10215923;28;20050;-70
